Airfield :
LOGIN :

Register | Disclaimer

   EN    FR    IT 

 










Legend :    VFR   Marginal VFR   IFR   Intensive IFR   Very Intensive IFR
Visi :
Ceiling :
>= 8 km
>= 3000ft
5 to 8 km
1000 to 3000 ft
1500m to 5 km
500 to 1000 ft
800 to 1500m
200 to 500 ft
< 800m
< 200 ft
Symbols :   Thunderstorms  Fog  Heavy snow  Heavy precipitations  Wind > 20 kt
SIGMETs :     Misc.  Thunderstorms  Icing  Turbulence  Mountain Waves  Volcanic Ashes






- Airport Elevation : 375 ft
- IATA code : MST


EHBK - Maastricht Aachen

CURRENT METAR :
  • 170425Z AUTO 19007KT 9999 NSC 14/13 Q1010 NOSIG

EXPIRED METARs :
  • 170355Z AUTO 19006KT 9999 NSC 14/13 Q1010 NOSIG
  • 170325Z AUTO 19008KT 9999 SCT035 14/13 Q1009
  • 170255Z AUTO 18007KT 9999 NSC 14/13 Q1009
  • 170225Z AUTO 18006KT 9999 NSC 14/13 Q1009
  • 170155Z AUTO 19006KT 9999 NSC 14/13 Q1009
  • 170125Z AUTO 20007KT 9999 NSC 14/13 Q1009
  • 170055Z AUTO 20007KT 9999 NSC 14/13 Q1009
  • 170025Z AUTO 19006KT 9999 NSC 14/13 Q1009
  • 162355Z AUTO 19007KT 9999 NSC 14/13 Q1009

TAF TAF EHBK
Valid from the 17 at 00:00 until the 18 at 06:00 UTC


162300Z 1700/1806 20007KT 9999 BKN040
PROB40
TEMPO 1703/1718 6000 SHRA TSRA SCT012 SCT020CB
BECMG 1709/1712 23010KT
BECMG 1716/1719 VRB02KT



MET'MAP, your aeronautical weather chart ! - Copyright ORBIFLY December 2007 - Disclaimer

ORBIFLY MET'MAP TEAM :

Programming & Development : Alexandra Zaïnal
Original concept : Baudouin d'Aumeries
Technical & hardware support : Manuel Goepfert
Assistance : Marc-Olivier Méhu




SOURCES & CREDITS :

   NOAA